Time;durP1;ratioP1;P1;durP2;ratioP2;P2;SDS_P1;SDS_P2;PMS_P1;PMS_P2;Temp;Humidity;BMP_temperature;BMP_pressure;BME280_temperature;BME280_humidity;BME280_pressure;Samples;Min_cycle;Max_cycle;Signal;HPM_P1;HPM_P2
2021/07/10 00:00:13;;;;;;;10.68;8.07;;;13.20;99.90;;;;;;5032781;28;20564;-75
2021/07/10 00:02:42;;;;;;;14.32;10.27;;;13.40;99.90;;;;;;5032615;28;20017;-75
2021/07/10 00:05:13;;;;;;;11.73;8.85;;;13.50;99.90;;;;;;5030948;28;20065;-75
2021/07/10 00:07:39;;;;;;;13.68;9.50;;;13.50;99.90;;;;;;5031225;28;20029;-75
2021/07/10 00:10:08;;;;;;;17.20;8.60;;;13.60;99.90;;;;;;5032301;28;20109;-75
2021/07/10 00:12:34;;;;;;;21.55;10.48;;;13.70;99.90;;;;;;5032328;28;20021;-75
2021/07/10 00:14:59;;;;;;;24.38;9.85;;;13.60;99.90;;;;;;5032375;28;20400;-75
2021/07/10 00:17:25;;;;;;;39.10;9.73;;;13.60;99.90;;;;;;5030992;28;20037;-75
2021/07/10 00:19:52;;;;;;;23.30;9.52;;;13.70;99.90;;;;;;5032217;28;20037;-75
2021/07/10 00:22:19;;;;;;;27.30;8.25;;;13.70;99.90;;;;;;5030410;28;20053;-75
2021/07/10 00:24:44;;;;;;;63.58;11.25;;;13.60;99.90;;;;;;5032033;28;20040;-75
2021/07/10 00:27:10;;;;;;;38.35;8.68;;;13.60;99.90;;;;;;5032155;28;20033;-75
2021/07/10 00:29:35;;;;;;;20.75;8.32;;;13.70;99.90;;;;;;5032139;28;20033;-74
2021/07/10 00:32:01;;;;;;;31.58;7.75;;;13.70;99.90;;;;;;5032090;28;20025;-75
2021/07/10 00:34:26;;;;;;;19.15;7.28;;;13.80;99.90;;;;;;5031709;28;20025;-74
2021/07/10 00:36:52;;;;;;;16.27;8.02;;;13.80;99.90;;;;;;5030672;28;20017;-75
2021/07/10 00:39:18;;;;;;;97.95;11.45;;;13.80;99.90;;;;;;5032115;28;20026;-74
2021/07/10 00:41:43;;;;;;;86.78;11.45;;;13.50;99.90;;;;;;5032323;28;20021;-76
2021/07/10 00:44:09;;;;;;;52.67;14.27;;;13.40;99.90;;;;;;5031914;28;20029;-76
2021/07/10 00:46:34;;;;;;;25.75;10.70;;;13.20;99.90;;;;;;5030304;28;20181;-77
2021/07/10 00:49:00;;;;;;;25.48;8.55;;;13.30;99.90;;;;;;5030417;28;20030;-76
2021/07/10 00:51:25;;;;;;;23.38;8.00;;;13.50;99.90;;;;;;5030561;28;20471;-76
2021/07/10 00:53:51;;;;;;;34.60;10.73;;;13.40;99.90;;;;;;5031860;28;20021;-77
2021/07/10 00:56:17;;;;;;;74.72;14.98;;;13.40;99.90;;;;;;5031558;28;20028;-77
2021/07/10 00:58:43;;;;;;;25.92;11.00;;;13.30;99.90;;;;;;5031819;28;20017;-76
2021/07/10 01:01:09;;;;;;;66.20;18.15;;;13.30;99.90;;;;;;5030428;28;20056;-76
2021/07/10 01:03:37;;;;;;;117.80;17.98;;;13.30;99.90;;;;;;5031470;28;20037;-76
2021/07/10 01:06:03;;;;;;;140.48;24.27;;;13.20;99.90;;;;;;5031422;28;20021;-76
2021/07/10 01:08:30;;;;;;;93.28;22.38;;;13.30;99.90;;;;;;5030338;28;20025;-77
2021/07/10 01:10:57;;;;;;;83.18;22.20;;;13.10;99.90;;;;;;5031528;28;20118;-76
2021/07/10 01:13:23;;;;;;;73.63;18.52;;;13.00;99.90;;;;;;5031668;28;20030;-76
2021/07/10 01:15:48;;;;;;;52.20;15.95;;;13.10;99.90;;;;;;5029867;28;20392;-76
2021/07/10 01:18:14;;;;;;;68.25;19.85;;;13.10;99.90;;;;;;5031527;28;20087;-76
2021/07/10 01:20:48;;;;;;;53.83;18.95;;;13.10;99.90;;;;;;5031717;28;20088;-77
2021/07/10 01:23:13;;;;;;;66.35;17.65;;;13.10;99.90;;;;;;5031543;28;20040;-76
2021/07/10 01:25:39;;;;;;;37.95;15.35;;;13.00;99.90;;;;;;5029926;28;20021;-76
2021/07/10 01:28:07;;;;;;;124.93;23.67;;;13.20;99.90;;;;;;5031446;28;20029;-76
2021/07/10 01:30:34;;;;;;;129.68;23.65;;;13.30;99.90;;;;;;5031162;28;20025;-76
2021/07/10 01:33:00;;;;;;;126.05;19.38;;;13.20;99.90;;;;;;5032116;28;20025;-76
2021/07/10 01:35:25;;;;;;;115.22;23.02;;;13.20;99.90;;;;;;5035176;28;20464;-76
2021/07/10 01:37:52;;;;;;;163.88;26.38;;;13.20;99.90;;;;;;5035344;28;20384;-76
2021/07/10 01:40:19;;;;;;;159.20;26.73;;;13.20;99.90;;;;;;5035290;28;20025;-76
2021/07/10 01:42:45;;;;;;;110.68;20.95;;;13.10;99.90;;;;;;5034028;28;20025;-77
2021/07/10 01:45:11;;;;;;;113.10;25.67;;;13.20;99.90;;;;;;5033669;28;20052;-76
2021/07/10 01:47:37;;;;;;;187.38;26.35;;;13.10;99.90;;;;;;5035072;28;20151;-76
2021/07/10 01:50:08;;;;;;;91.28;24.60;;;13.20;99.90;;;;;;5035019;28;20108;-76
2021/07/10 01:52:36;;;;;;;187.50;23.85;;;13.20;99.90;;;;;;5035128;28;20020;-76
2021/07/10 01:55:04;;;;;;;345.38;27.58;;;13.40;99.90;;;;;;5035191;28;20456;-76
2021/07/10 01:57:29;;;;;;;122.15;16.48;;;13.40;99.90;;;;;;5034805;28;20108;-76
2021/07/10 01:59:55;;;;;;;163.68;20.75;;;13.40;99.90;;;;;;5033644;28;20056;-76
2021/07/10 02:02:20;;;;;;;227.32;25.85;;;13.50;99.90;;;;;;5034895;28;20391;-76
2021/07/10 02:04:48;;;;;;;138.35;18.85;;;13.50;99.90;;;;;;5034502;28;20034;-76
2021/07/10 02:07:15;;;;;;;270.23;21.30;;;13.50;99.90;;;;;;5033574;28;20022;-77
2021/07/10 02:09:41;;;;;;;125.45;19.65;;;13.70;99.90;;;;;;5034544;28;20579;-76
2021/07/10 02:12:07;;;;;;;129.02;18.98;;;13.80;99.90;;;;;;5034945;28;20353;-76
2021/07/10 02:14:33;;;;;;;183.30;22.15;;;13.80;99.90;;;;;;5033161;28;20116;-76
2021/07/10 02:16:59;;;;;;;529.85;41.70;;;13.90;99.90;;;;;;5034567;28;20060;-76
2021/07/10 02:19:24;;;;;;;244.23;27.35;;;13.80;99.90;;;;;;5033282;28;20472;-76
2021/07/10 02:21:50;;;;;;;125.10;20.08;;;13.90;99.90;;;;;;5034583;28;20101;-76
2021/07/10 02:24:16;;;;;;;214.80;24.45;;;13.90;99.90;;;;;;5034575;28;20049;-76
2021/07/10 02:26:41;;;;;;;151.10;22.02;;;14.00;99.90;;;;;;5034119;28;20104;-77
2021/07/10 02:29:07;;;;;;;109.97;19.67;;;14.00;99.90;;;;;;5033053;28;20117;-76
2021/07/10 02:31:36;;;;;;;388.17;34.13;;;14.00;99.90;;;;;;5033043;28;20026;-76
2021/07/10 02:34:02;;;;;;;379.35;41.15;;;14.00;99.90;;;;;;5034281;28;20025;-76
2021/07/10 02:36:28;;;;;;;429.25;37.17;;;14.00;99.90;;;;;;5034109;28;20029;-76
2021/07/10 02:38:54;;;;;;;518.75;40.35;;;14.00;99.90;;;;;;5034144;28;20026;-76
2021/07/10 02:41:19;;;;;;;301.98;35.88;;;14.00;99.90;;;;;;5034165;28;20033;-76
2021/07/10 02:43:45;;;;;;;399.60;45.65;;;14.00;99.90;;;;;;5032139;28;20136;-76
2021/07/10 02:46:11;;;;;;;205.85;26.70;;;14.00;99.90;;;;;;5033794;28;20045;-76
2021/07/10 02:48:36;;;;;;;431.25;39.88;;;13.90;99.90;;;;;;5034079;28;20497;-76
2021/07/10 02:51:02;;;;;;;64.60;18.90;;;13.90;99.90;;;;;;5032757;28;20025;-76
2021/07/10 02:53:28;;;;;;;100.18;22.65;;;13.90;99.90;;;;;;5034025;28;20029;-76
2021/07/10 02:55:53;;;;;;;381.38;41.25;;;14.00;99.90;;;;;;5032397;28;20502;-76
2021/07/10 02:58:19;;;;;;;276.85;34.38;;;14.00;99.90;;;;;;5033949;28;20048;-75
2021/07/10 03:00:44;;;;;;;186.07;28.70;;;13.70;99.90;;;;;;5032568;28;20037;-76
2021/07/10 03:03:10;;;;;;;169.73;30.48;;;13.50;99.90;;;;;;5033616;28;20025;-76
2021/07/10 03:05:37;;;;;;;59.63;21.60;;;13.60;99.90;;;;;;5033612;28;20104;-76
2021/07/10 03:08:03;;;;;;;76.72;22.08;;;13.70;99.90;;;;;;5032332;28;20025;-76
2021/07/10 03:10:28;;;;;;;29.17;13.35;;;13.80;99.90;;;;;;5036307;28;20079;-76
2021/07/10 03:12:55;;;;;;;41.40;16.52;;;13.80;99.90;;;;;;5033555;28;20017;-76
2021/07/10 03:15:21;;;;;;;42.35;13.30;;;13.70;99.90;;;;;;5033431;28;20037;-76
2021/07/10 03:17:49;;;;;;;36.35;15.43;;;13.70;99.90;;;;;;5032156;28;20049;-76
2021/07/10 03:20:18;;;;;;;58.83;18.00;;;13.60;99.90;;;;;;5032778;28;20026;-75
2021/07/10 03:22:44;;;;;;;48.33;17.38;;;13.70;99.90;;;;;;5013918;28;20026;-75
2021/07/10 03:25:11;;;;;;;185.45;23.17;;;13.80;99.90;;;;;;5013807;28;20117;-75
2021/07/10 03:27:36;;;;;;;327.67;31.85;;;13.70;99.90;;;;;;5020269;28;20025;-75
2021/07/10 03:30:07;;;;;;;331.73;36.28;;;13.80;99.90;;;;;;5033368;28;20025;-75
2021/07/10 03:32:33;;;;;;;170.60;29.60;;;13.60;99.90;;;;;;5013656;28;20018;-75
2021/07/10 03:34:59;;;;;;;134.95;28.02;;;13.60;99.90;;;;;;5012329;28;20045;-75
2021/07/10 03:37:24;;;;;;;172.55;28.90;;;13.70;99.90;;;;;;5033196;28;20537;-75
2021/07/10 03:39:50;;;;;;;70.10;22.70;;;13.80;99.90;;;;;;5031969;28;20041;-75
2021/07/10 03:42:15;;;;;;;310.05;36.55;;;13.90;99.90;;;;;;5033279;28;20384;-75
2021/07/10 03:44:41;;;;;;;553.10;48.15;;;13.90;99.90;;;;;;5032952;28;20479;-75
2021/07/10 03:47:07;;;;;;;404.67;40.25;;;13.70;99.90;;;;;;5033051;28;20029;-75
2021/07/10 03:49:32;;;;;;;141.45;27.33;;;13.60;99.90;;;;;;5033143;28;20227;-75
2021/07/10 03:51:58;;;;;;;135.00;27.70;;;13.70;99.90;;;;;;5033044;28;20029;-75
2021/07/10 03:54:23;;;;;;;346.45;40.50;;;13.80;99.90;;;;;;5031653;28;20507;-75
2021/07/10 03:56:49;;;;;;;536.67;51.20;;;13.80;99.90;;;;;;5031787;28;20442;-75
2021/07/10 03:59:14;;;;;;;444.33;48.35;;;13.70;99.90;;;;;;5032827;28;20096;-75
2021/07/10 04:01:42;;;;;;;168.57;31.48;;;13.50;99.90;;;;;;5032786;28;20079;-75
2021/07/10 04:04:09;;;;;;;408.02;52.28;;;13.60;99.90;;;;;;5032507;28;20029;-75
2021/07/10 04:06:34;;;;;;;89.88;30.00;;;13.70;99.90;;;;;;5032661;28;20013;-75
2021/07/10 04:09:00;;;;;;;262.23;45.60;;;13.70;99.90;;;;;;5031295;28;20017;-75
2021/07/10 04:11:25;;;;;;;311.75;47.25;;;13.70;99.90;;;;;;5031265;28;20083;-75
2021/07/10 04:13:51;;;;;;;113.63;34.10;;;13.70;99.90;;;;;;5032624;28;20048;-75
2021/07/10 04:16:16;;;;;;;241.40;44.97;;;13.80;99.90;;;;;;5032691;28;20025;-75
2021/07/10 04:18:42;;;;;;;221.43;45.40;;;13.80;99.90;;;;;;5031001;28;20017;-75
2021/07/10 04:21:07;;;;;;;126.93;33.53;;;13.80;99.90;;;;;;5032363;28;20423;-75
2021/07/10 04:23:33;;;;;;;274.95;48.10;;;13.90;99.90;;;;;;5032191;28;20030;-75
2021/07/10 04:25:58;;;;;;;217.60;42.47;;;13.90;99.90;;;;;;5030729;28;20610;-75
2021/07/10 04:28:24;;;;;;;105.00;34.17;;;14.10;99.90;;;;;;5032196;28;20029;-74
2021/07/10 04:30:50;;;;;;;190.68;39.13;;;14.10;99.90;;;;;;5032140;28;20035;-75
2021/07/10 04:33:15;;;;;;;231.10;46.10;;;14.00;99.90;;;;;;5032172;28;20024;-75
2021/07/10 04:35:41;;;;;;;206.43;47.22;;;14.00;99.90;;;;;;5030639;28;20055;-75
2021/07/10 04:38:06;;;;;;;117.45;36.92;;;13.90;99.90;;;;;;5030540;28;20071;-75
2021/07/10 04:40:32;;;;;;;205.85;46.20;;;14.00;99.90;;;;;;5031982;28;20022;-75
2021/07/10 04:42:58;;;;;;;144.85;40.45;;;14.00;99.90;;;;;;5031982;28;20480;-75
2021/07/10 04:45:23;;;;;;;225.95;48.20;;;14.10;99.90;;;;;;5030404;28;20025;-75
2021/07/10 04:47:49;;;;;;;120.78;39.38;;;14.00;99.90;;;;;;5032001;28;20036;-75
2021/07/10 04:50:15;;;;;;;76.90;32.97;;;13.90;99.90;;;;;;5030462;28;20451;-74
2021/07/10 04:52:42;;;;;;;201.02;47.53;;;14.20;99.90;;;;;;5031781;28;20543;-75
2021/07/10 04:55:12;;;;;;;170.88;43.25;;;14.20;99.90;;;;;;5031612;28;20025;-75
2021/07/10 04:57:38;;;;;;;108.47;38.85;;;14.10;99.90;;;;;;5031699;28;20049;-75
2021/07/10 05:00:06;;;;;;;169.05;46.45;;;14.10;99.90;;;;;;5030681;28;20064;-75
2021/07/10 05:02:32;;;;;;;117.53;41.42;;;14.20;99.90;;;;;;5031652;28;20025;-75
2021/07/10 05:04:57;;;;;;;63.53;31.92;;;14.20;99.90;;;;;;5030132;28;20034;-75
2021/07/10 05:07:24;;;;;;;72.70;33.47;;;14.30;99.90;;;;;;5031104;28;20541;-75
2021/07/10 05:09:49;;;;;;;123.38;39.10;;;14.20;99.90;;;;;;5035542;28;20029;-75
2021/07/10 05:12:16;;;;;;;123.95;39.72;;;14.20;99.90;;;;;;5030181;28;20021;-75
2021/07/10 05:14:42;;;;;;;63.63;30.58;;;14.40;99.90;;;;;;5031376;28;20103;-75
2021/07/10 05:17:07;;;;;;;123.70;38.88;;;14.40;99.90;;;;;;5031411;28;20068;-75
2021/07/10 05:19:33;;;;;;;70.05;32.00;;;14.60;99.90;;;;;;5031535;28;20044;-75
2021/07/10 05:21:58;;;;;;;97.22;36.97;;;14.70;99.90;;;;;;5031406;28;20037;-75
2021/07/10 05:24:24;;;;;;;117.13;38.92;;;14.70;99.90;;;;;;5031334;28;20392;-75
2021/07/10 05:26:49;;;;;;;86.47;35.00;;;14.50;99.90;;;;;;5030109;28;20042;-75
2021/07/10 05:29:16;;;;;;;138.23;40.50;;;14.60;99.90;;;;;;5031295;28;20053;-75
2021/07/10 05:31:42;;;;;;;119.90;39.58;;;14.60;99.90;;;;;;5031858;28;20087;-75
2021/07/10 05:34:07;;;;;;;105.10;38.28;;;14.60;99.90;;;;;;5031322;28;20516;-75
2021/07/10 05:36:33;;;;;;;67.97;33.97;;;14.60;99.90;;;;;;5029796;28;20229;-75
2021/07/10 05:38:59;;;;;;;70.30;33.10;;;14.60;99.90;;;;;;5031338;28;20534;-75
2021/07/10 05:41:24;;;;;;;105.72;38.35;;;14.70;99.90;;;;;;5031239;28;20492;-75
2021/07/10 05:43:50;;;;;;;87.80;36.30;;;14.70;99.90;;;;;;5031374;28;20022;-75
2021/07/10 05:46:16;;;;;;;87.20;36.38;;;14.70;99.90;;;;;;5030009;28;20021;-75
2021/07/10 05:48:41;;;;;;;91.00;35.60;;;14.80;99.90;;;;;;5031199;28;20030;-75
2021/07/10 05:51:07;;;;;;;84.53;34.97;;;14.80;99.90;;;;;;5031052;28;20072;-75
2021/07/10 05:53:33;;;;;;;54.88;29.75;;;14.80;99.90;;;;;;5031153;28;20117;-75
2021/07/10 05:55:59;;;;;;;55.58;29.65;;;15.00;99.90;;;;;;5029695;28;20451;-75
2021/07/10 05:58:25;;;;;;;56.08;30.77;;;15.00;99.90;;;;;;5031099;28;20487;-75
2021/07/10 06:00:50;;;;;;;56.75;29.33;;;15.20;99.90;;;;;;5031212;28;20078;-76
2021/07/10 06:03:16;;;;;;;71.10;30.27;;;15.20;99.90;;;;;;5030907;28;20037;-77
2021/07/10 06:05:42;;;;;;;56.13;28.58;;;15.20;99.90;;;;;;5030892;28;20408;-76
2021/07/10 06:08:07;;;;;;;52.25;28.30;;;15.00;99.90;;;;;;5029735;28;20030;-76
2021/07/10 06:10:33;;;;;;;49.63;27.35;;;14.80;99.90;;;;;;5033639;28;20104;-77
2021/07/10 06:13:00;;;;;;;54.03;29.08;;;14.80;99.90;;;;;;5029846;28;20021;-76
2021/07/10 06:15:25;;;;;;;60.30;30.27;;;14.80;99.90;;;;;;5030728;28;20101;-77
2021/07/10 06:17:51;;;;;;;54.90;30.92;;;14.60;99.90;;;;;;5029867;28;20137;-77
2021/07/10 06:20:18;;;;;;;54.95;30.50;;;14.50;99.90;;;;;;5031927;28;20040;-77
2021/07/10 06:22:45;;;;;;;49.70;28.45;;;14.50;99.90;;;;;;5034824;28;20467;-75
2021/07/10 06:25:11;;;;;;;56.63;31.02;;;14.70;99.90;;;;;;5034506;28;20048;-75
2021/07/10 06:27:37;;;;;;;51.97;30.38;;;15.00;99.90;;;;;;5034571;28;20030;-75
2021/07/10 06:30:08;;;;;;;43.25;26.42;;;15.00;99.90;;;;;;5033228;28;20029;-75
2021/07/10 06:32:34;;;;;;;45.08;28.08;;;14.70;99.90;;;;;;5033271;28;20022;-75
2021/07/10 06:34:59;;;;;;;51.15;30.75;;;14.80;99.90;;;;;;5033080;28;20035;-75
2021/07/10 06:37:25;;;;;;;55.15;29.85;;;14.70;99.90;;;;;;5033187;28;20075;-75
2021/07/10 06:39:50;;;;;;;45.88;28.65;;;14.70;99.90;;;;;;5034310;28;20388;-75
2021/07/10 06:42:18;;;;;;;46.67;27.48;;;15.00;99.90;;;;;;5033013;28;20026;-75
2021/07/10 06:44:44;;;;;;;50.20;29.50;;;15.10;99.90;;;;;;5034299;28;20021;-76
2021/07/10 06:47:09;;;;;;;42.45;27.42;;;15.20;99.90;;;;;;5032911;28;20079;-75
2021/07/10 06:49:35;;;;;;;49.75;30.55;;;15.50;99.90;;;;;;5034125;28;20034;-75
2021/07/10 06:52:00;;;;;;;40.42;28.15;;;15.60;99.90;;;;;;5034513;28;20469;-75
2021/07/10 06:54:27;;;;;;;38.90;28.00;;;15.80;99.90;;;;;;5033983;28;20030;-76
2021/07/10 06:56:52;;;;;;;37.25;27.38;;;15.90;99.90;;;;;;5034081;28;20024;-75
2021/07/10 06:59:18;;;;;;;37.42;27.95;;;16.00;99.90;;;;;;5033992;28;20092;-75
2021/07/10 07:01:46;;;;;;;33.25;25.88;;;16.10;99.90;;;;;;5032893;28;20068;-75
2021/07/10 07:04:12;;;;;;;36.33;27.33;;;16.00;99.90;;;;;;5033844;28;20040;-75
2021/07/10 07:06:37;;;;;;;35.78;26.73;;;16.10;99.90;;;;;;5033911;28;20391;-77
2021/07/10 07:09:04;;;;;;;33.38;26.88;;;16.20;99.90;;;;;;5033722;28;20079;-75
2021/07/10 07:11:29;;;;;;;36.30;28.30;;;16.30;99.90;;;;;;5033649;28;20373;-75
2021/07/10 07:13:55;;;;;;;33.60;26.67;;;15.70;99.90;;;;;;5033759;28;20044;-75
2021/07/10 07:16:20;;;;;;;37.00;28.63;;;15.80;99.90;;;;;;5032259;28;20029;-75
2021/07/10 07:18:46;;;;;;;41.55;30.92;;;15.90;99.90;;;;;;5033685;28;20031;-75
2021/07/10 07:21:11;;;;;;;41.40;29.88;;;15.90;99.90;;;;;;5033613;28;20032;-75
2021/07/10 07:23:37;;;;;;;38.60;28.98;;;16.00;99.90;;;;;;5033425;28;20472;-75
2021/07/10 07:26:03;;;;;;;37.85;28.80;;;16.10;99.90;;;;;;5032205;28;20056;-75
2021/07/10 07:28:28;;;;;;;36.13;27.98;;;15.80;99.90;;;;;;5033452;28;20524;-75
2021/07/10 07:30:54;;;;;;;30.20;25.25;;;15.50;99.90;;;;;;5033183;28;20025;-75
2021/07/10 07:33:20;;;;;;;31.92;26.38;;;15.60;99.90;;;;;;5033412;28;20022;-75
2021/07/10 07:35:45;;;;;;;28.40;24.15;;;15.80;99.90;;;;;;5033239;28;20047;-75
2021/07/10 07:38:11;;;;;;;28.63;23.95;;;15.90;99.90;;;;;;5033261;28;20036;-75
2021/07/10 07:40:36;;;;;;;31.02;25.42;;;15.90;99.90;;;;;;5032028;28;20116;-75
2021/07/10 07:43:02;;;;;;;32.50;26.75;;;15.70;99.90;;;;;;5033243;28;20030;-75
2021/07/10 07:45:28;;;;;;;29.17;25.55;;;15.80;99.90;;;;;;5033139;28;20503;-75
2021/07/10 07:47:53;;;;;;;21.23;18.92;;;16.30;99.90;;;;;;5033037;28;20044;-75
2021/07/10 07:50:19;;;;;;;18.73;16.67;;;16.80;99.90;;;;;;5033037;28;20067;-75
2021/07/10 07:52:45;;;;;;;17.67;15.60;;;17.10;99.90;;;;;;5033002;28;20083;-75
2021/07/10 07:55:12;;;;;;;20.30;17.67;;;16.80;99.90;;;;;;5032849;28;20541;-75
2021/07/10 07:57:39;;;;;;;17.42;15.55;;;16.60;99.90;;;;;;5032816;28;20097;-76
2021/07/10 08:00:08;;;;;;;19.90;17.30;;;16.50;99.90;;;;;;5031652;28;20037;-75
2021/07/10 08:02:34;;;;;;;22.08;18.90;;;16.60;99.90;;;;;;5032469;28;20503;-75
2021/07/10 08:04:59;;;;;;;18.15;16.20;;;16.40;99.90;;;;;;5031085;28;20033;-75
2021/07/10 08:07:25;;;;;;;17.50;15.18;;;16.80;99.90;;;;;;5032379;28;20037;-75
2021/07/10 08:09:50;;;;;;;20.85;18.60;;;17.20;99.90;;;;;;5014659;28;20460;-75
2021/07/10 08:12:16;;;;;;;18.30;16.27;;;17.00;99.90;;;;;;5032516;28;20028;-75
2021/07/10 08:14:41;;;;;;;19.23;16.67;;;16.80;99.90;;;;;;5032269;28;20025;-75
2021/07/10 08:17:07;;;;;;;21.85;17.25;;;17.10;99.90;;;;;;5032126;28;20040;-75
2021/07/10 08:19:32;;;;;;;18.63;16.15;;;17.00;99.90;;;;;;5032305;28;20456;-75
2021/07/10 08:21:58;;;;;;;17.88;15.98;;;16.80;99.90;;;;;;5032291;28;20075;-75
2021/07/10 08:24:24;;;;;;;17.15;15.45;;;16.90;99.90;;;;;;5032068;28;20029;-75
2021/07/10 08:26:49;;;;;;;18.00;15.63;;;16.80;99.90;;;;;;5032134;28;20446;-75
2021/07/10 08:29:15;;;;;;;18.25;15.50;;;16.80;99.90;;;;;;5031126;28;20044;-75
2021/07/10 08:31:41;;;;;;;16.45;14.70;;;16.80;99.90;;;;;;5032178;28;20077;-75
2021/07/10 08:34:08;;;;;;;16.40;14.70;;;17.00;99.90;;;;;;5030802;28;20505;-75
2021/07/10 08:36:34;;;;;;;16.98;14.75;;;17.10;99.90;;;;;;5030447;28;20022;-75
2021/07/10 08:39:00;;;;;;;15.43;13.88;;;17.00;99.90;;;;;;5032059;28;20053;-75
2021/07/10 08:41:26;;;;;;;15.82;14.23;;;17.20;99.90;;;;;;5031900;28;20057;-75
2021/07/10 08:43:52;;;;;;;16.08;14.38;;;17.50;99.90;;;;;;5030329;28;20040;-75
2021/07/10 08:46:20;;;;;;;17.33;14.50;;;17.70;99.90;;;;;;5030327;28;20025;-75
2021/07/10 08:48:46;;;;;;;14.07;12.70;;;17.70;99.90;;;;;;5031954;28;20025;-75
2021/07/10 08:51:13;;;;;;;15.93;14.23;;;17.60;99.90;;;;;;5031720;28;20026;-75
2021/07/10 08:53:39;;;;;;;17.00;15.30;;;17.60;99.90;;;;;;5031880;28;20021;-75
2021/07/10 08:56:06;;;;;;;16.23;14.52;;;17.60;99.90;;;;;;5030128;28;20097;-75
2021/07/10 08:58:32;;;;;;;16.42;14.82;;;17.90;99.90;;;;;;5031700;28;20029;-75
2021/07/10 09:00:58;;;;;;;17.20;15.02;;;18.00;99.90;;;;;;5031738;28;20037;-75
2021/07/10 09:03:23;;;;;;;15.43;13.93;;;18.10;99.90;;;;;;5031495;28;20029;-75
2021/07/10 09:05:50;;;;;;;15.90;14.20;;;18.20;99.90;;;;;;5031359;28;20529;-75
2021/07/10 09:08:21;;;;;;;17.65;15.52;;;17.70;99.90;;;;;;5031702;28;20072;-75
2021/07/10 09:10:48;;;;;;;16.30;14.25;;;17.60;99.90;;;;;;5030152;28;20531;-75
2021/07/10 09:13:15;;;;;;;17.25;15.52;;;17.80;99.90;;;;;;5031530;28;20033;-75
2021/07/10 09:15:41;;;;;;;16.52;14.52;;;17.80;99.90;;;;;;5031330;28;20100;-75
2021/07/10 09:18:08;;;;;;;17.08;14.48;;;18.10;99.90;;;;;;5020634;28;20472;-75
2021/07/10 09:20:34;;;;;;;15.30;13.80;;;17.90;99.90;;;;;;5031921;28;20088;-75
2021/07/10 09:23:00;;;;;;;13.82;12.38;;;17.90;99.90;;;;;;5030277;28;20030;-75
2021/07/10 09:25:29;;;;;;;16.15;12.18;;;18.30;99.90;;;;;;5029720;28;20034;-75
2021/07/10 09:27:57;;;;;;;12.48;11.18;;;18.60;99.90;;;;;;5030008;28;20036;-75
2021/07/10 09:30:49;;;;;;;12.63;11.40;;;19.10;99.90;;;;;;5031335;28;20064;-75
2021/07/10 09:33:17;;;;;;;11.75;10.55;;;19.10;99.90;;;;;;5030294;28;20458;-75
2021/07/10 09:35:54;;;;;;;11.48;10.00;;;19.00;99.90;;;;;;5029820;28;20018;-75
2021/07/10 09:38:33;;;;;;;10.02;9.00;;;19.10;99.90;;;;;;5031428;28;20322;-75
2021/07/10 09:41:03;;;;;;;9.20;8.27;;;19.10;99.90;;;;;;5030142;28;20025;-75
2021/07/10 09:43:35;;;;;;;9.45;8.48;;;19.50;99.90;;;;;;5029877;28;20502;-75
2021/07/10 09:46:03;;;;;;;8.48;7.68;;;19.50;99.90;;;;;;5030126;28;20578;-75
2021/07/10 09:48:30;;;;;;;9.18;8.25;;;19.30;99.90;;;;;;5031018;28;20029;-75
2021/07/10 09:51:22;;;;;;;8.45;7.75;;;19.40;99.90;;;;;;5031271;28;20022;-75
2021/07/10 09:54:06;;;;;;;9.50;8.45;;;19.40;99.90;;;;;;5029900;28;20076;-75
2021/07/10 09:56:37;;;;;;;10.15;8.52;;;19.20;99.90;;;;;;5034866;28;20087;-75
2021/07/10 09:59:17;;;;;;;14.30;7.43;;;19.50;99.90;;;;;;5034998;28;20025;-75
2021/07/10 10:01:43;;;;;;;8.32;7.43;;;19.80;99.90;;;;;;5034975;28;20041;-75
2021/07/10 10:04:24;;;;;;;8.82;7.07;;;20.00;99.90;;;;;;5034771;28;20029;-75
2021/07/10 10:06:50;;;;;;;8.32;6.93;;;19.80;99.90;;;;;;5035219;28;20442;-75
2021/07/10 10:09:22;;;;;;;6.95;5.88;;;19.80;99.90;;;;;;5034692;28;20471;-75
2021/07/10 10:11:52;;;;;;;6.32;5.72;;;20.40;99.90;;;;;;5033894;28;20376;-75
2021/07/10 10:14:18;;;;;;;5.68;5.10;;;20.60;99.90;;;;;;5034618;28;20021;-75
2021/07/10 10:16:47;;;;;;;5.57;4.97;;;20.60;99.90;;;;;;5034497;28;20107;-75
2021/07/10 10:19:15;;;;;;;5.13;4.53;;;21.10;99.90;;;;;;5034656;28;20483;-75
2021/07/10 10:21:40;;;;;;;5.20;4.68;;;21.10;99.90;;;;;;5034640;28;20035;-75
2021/07/10 10:24:06;;;;;;;5.60;4.60;;;20.80;99.90;;;;;;5034433;28;20394;-75
2021/07/10 10:26:32;;;;;;;5.32;4.70;;;21.10;99.90;;;;;;5034295;28;20025;-75
2021/07/10 10:28:59;;;;;;;6.78;5.00;;;21.30;99.90;;;;;;5034507;28;20045;-76
2021/07/10 10:31:25;;;;;;;6.45;4.50;;;21.30;99.90;;;;;;5034470;28;20479;-76
2021/07/10 10:33:51;;;;;;;4.75;4.28;;;21.50;99.90;;;;;;5033025;28;20026;-75
2021/07/10 10:36:23;;;;;;;4.20;3.80;;;21.70;99.90;;;;;;5034114;28;20057;-76
2021/07/10 10:38:50;;;;;;;5.40;4.00;;;21.80;99.90;;;;;;5034339;28;20036;-75
2021/07/10 10:41:17;;;;;;;4.60;4.07;;;22.40;99.90;;;;;;5034316;28;20056;-76
2021/07/10 10:43:43;;;;;;;4.97;3.80;;;22.50;99.90;;;;;;5034147;28;20037;-76
2021/07/10 10:46:19;;;;;;;4.00;3.70;;;22.70;99.90;;;;;;5033976;28;20029;-76
2021/07/10 10:48:45;;;;;;;;;;;23.00;99.90;;;;;;5034551;28;20059;-76
2021/07/10 10:51:23;;;;;;;;;;;22.90;99.90;;;;;;5034384;28;19920;-76
2021/07/10 10:53:49;;;;;;;3.85;3.50;;;22.80;99.90;;;;;;5034123;28;20340;-76
2021/07/10 10:56:37;;;;;;;3.80;3.50;;;22.70;99.90;;;;;;5032383;28;20108;-76
2021/07/10 10:59:28;;;;;;;4.80;3.88;;;22.60;99.90;;;;;;5033980;28;20351;-75
2021/07/10 11:01:56;;;;;;;4.47;3.58;;;22.20;99.90;;;;;;5033426;28;20053;-76
2021/07/10 11:04:48;;;;;;;3.90;3.60;;;22.30;99.90;;;;;;5033221;28;20050;-75
2021/07/10 11:07:38;;;;;;;3.97;3.55;;;22.00;99.90;;;;;;5033586;28;20108;-75
2021/07/10 11:10:03;;;;;;;4.20;3.30;;;22.50;99.90;;;;;;5032487;28;20025;-76
2021/07/10 11:12:54;;;;;;;4.78;3.47;;;22.80;99.90;;;;;;5032410;28;20030;-76
2021/07/10 11:15:26;;;;;;;7.85;3.50;;;22.50;99.90;;;;;;5033529;28;20060;-76
2021/07/10 11:18:00;;;;;;;4.10;3.38;;;22.40;99.90;;;;;;5033269;28;20028;-76
2021/07/10 11:20:45;;;;;;;4.00;3.42;;;22.60;99.90;;;;;;5032176;28;20049;-76
2021/07/10 11:23:34;;;;;;;7.68;3.38;;;22.40;99.90;;;;;;5033616;28;20157;-75
2021/07/10 11:26:10;;;;;;;4.45;3.42;;;22.40;99.90;;;;;;5033166;28;20029;-76
2021/07/10 11:28:46;;;;;;;4.95;3.60;;;22.40;99.90;;;;;;5033282;28;20021;-76
2021/07/10 11:31:17;;;;;;;;;;;22.40;99.90;;;;;;5033844;28;20080;-76
2021/07/10 11:34:07;;;;;;;3.70;3.40;;;22.50;99.90;;;;;;5033229;28;19913;-76
2021/07/10 11:36:40;;;;;;;5.03;3.22;;;22.40;99.90;;;;;;5032951;28;20498;-76
2021/07/10 11:39:32;;;;;;;3.97;3.30;;;22.60;99.90;;;;;;5033742;28;20029;-76
2021/07/10 11:42:32;;;;;;;4.07;3.58;;;23.20;99.90;;;;;;5033180;28;20053;-76
2021/07/10 11:45:08;;;;;;;4.63;3.15;;;23.80;99.90;;;;;;5033203;28;20022;-76
2021/07/10 11:47:50;;;;;;;4.15;3.03;;;24.30;99.90;;;;;;5031851;28;20388;-76
2021/07/10 11:50:17;;;;;;;5.00;3.10;;;24.10;99.90;;;;;;5031884;28;20026;-76
2021/07/10 11:52:58;;;;;;;4.55;3.58;;;23.30;99.90;;;;;;5033119;28;20096;-76
2021/07/10 11:55:25;;;;;;;3.58;3.28;;;24.00;99.90;;;;;;5032980;28;20498;-75
2021/07/10 11:57:51;;;;;;;4.57;2.60;;;24.50;99.90;;;;;;5033182;28;20063;-75
2021/07/10 12:00:17;;;;;;;3.28;2.90;;;25.10;99.90;;;;;;5031728;28;20057;-75
2021/07/10 12:02:43;;;;;;;4.28;2.55;;;25.20;99.90;;;;;;5031456;28;20026;-76
2021/07/10 12:05:10;;;;;;;2.80;2.60;;;24.50;99.90;;;;;;5032714;28;20037;-75
2021/07/10 12:08:04;;;;;;;3.45;3.15;;;24.30;99.90;;;;;;5032672;28;20029;-76
2021/07/10 12:10:37;;;;;;;3.70;2.88;;;24.50;99.90;;;;;;5035682;28;20112;-75
2021/07/10 12:13:18;;;;;;;3.47;3.17;;;25.10;99.90;;;;;;5012943;28;20025;-76
2021/07/10 12:15:53;;;;;;;4.10;2.95;;;24.90;99.90;;;;;;5028915;28;20053;-76
2021/07/10 12:18:20;;;;;;;3.33;3.00;;;24.40;99.90;;;;;;5031722;28;20032;-76
2021/07/10 12:20:58;;;;;;;3.53;3.20;;;24.00;99.90;;;;;;5032447;28;20048;-76
2021/07/10 12:23:29;;;;;;;3.45;3.15;;;23.90;99.90;;;;;;5032567;28;20071;-76
2021/07/10 12:26:01;;;;;;;3.45;3.05;;;23.90;99.90;;;;;;5012668;28;20559;-77
2021/07/10 12:28:41;;;;;;;3.45;3.15;;;24.50;99.90;;;;;;5012736;28;20061;-75
2021/07/10 12:31:16;;;;;;;4.10;3.00;;;24.90;99.90;;;;;;5021947;28;20112;-76
2021/07/10 12:33:51;;;;;;;4.85;3.45;;;25.10;99.90;;;;;;5031085;28;20030;-76